sensor_id;sensor_type;location;lat;lon;timestamp;pressure;altitude;pressure_sealevel;temperature
65290;BMP180;51893;59.754;10.110;2023-03-01T00:01:48;103444.40;;;-1.00
65290;BMP180;51893;59.754;10.110;2023-03-01T00:04:17;103445.60;;;-1.00
65290;BMP180;51893;59.754;10.110;2023-03-01T00:06:45;103447.00;;;-1.00
65290;BMP180;51893;59.754;10.110;2023-03-01T00:09:15;103444.20;;;-1.00
65290;BMP180;51893;59.754;10.110;2023-03-01T00:11:44;103449.00;;;-1.00
65290;BMP180;51893;59.754;10.110;2023-03-01T00:14:14;103455.00;;;-0.90
65290;BMP180;51893;59.754;10.110;2023-03-01T00:16:45;103455.60;;;-0.90
65290;BMP180;51893;59.754;10.110;2023-03-01T00:19:18;103456.00;;;-0.82
65290;BMP180;51893;59.754;10.110;2023-03-01T00:21:48;103458.00;;;-0.82
65290;BMP180;51893;59.754;10.110;2023-03-01T00:24:16;103458.80;;;-0.90
65290;BMP180;51893;59.754;10.110;2023-03-01T00:26:47;103459.40;;;-0.90
65290;BMP180;51893;59.754;10.110;2023-03-01T00:29:15;103467.00;;;-0.92
65290;BMP180;51893;59.754;10.110;2023-03-01T00:31:43;103465.20;;;-1.00
65290;BMP180;51893;59.754;10.110;2023-03-01T00:34:11;103465.80;;;-1.00
65290;BMP180;51893;59.754;10.110;2023-03-01T00:36:39;103464.40;;;-1.00
65290;BMP180;51893;59.754;10.110;2023-03-01T00:39:16;103462.60;;;-1.00
65290;BMP180;51893;59.754;10.110;2023-03-01T00:41:43;103466.80;;;-1.00
65290;BMP180;51893;59.754;10.110;2023-03-01T00:44:12;103464.00;;;-1.00
65290;BMP180;51893;59.754;10.110;2023-03-01T00:46:40;103463.80;;;-1.00
65290;BMP180;51893;59.754;10.110;2023-03-01T00:49:08;103460.40;;;-0.92
65290;BMP180;51893;59.754;10.110;2023-03-01T00:51:36;103464.80;;;-0.90
65290;BMP180;51893;59.754;10.110;2023-03-01T00:54:04;103459.80;;;-0.98
65290;BMP180;51893;59.754;10.110;2023-03-01T00:56:32;103462.00;;;-1.00
65290;BMP180;51893;59.754;10.110;2023-03-01T00:59:01;103453.80;;;-1.00
65290;BMP180;51893;59.754;10.110;2023-03-01T01:01:30;103458.40;;;-1.10
65290;BMP180;51893;59.754;10.110;2023-03-01T01:04:06;103457.00;;;-1.10
65290;BMP180;51893;59.754;10.110;2023-03-01T01:06:39;103452.00;;;-1.10
65290;BMP180;51893;59.754;10.110;2023-03-01T01:09:14;103452.80;;;-1.08
65290;BMP180;51893;59.754;10.110;2023-03-01T01:11:50;103450.80;;;-1.00
65290;BMP180;51893;59.754;10.110;2023-03-01T01:14:20;103450.60;;;-1.00
65290;BMP180;51893;59.754;10.110;2023-03-01T01:16:49;103455.80;;;-0.98
65290;BMP180;51893;59.754;10.110;2023-03-01T01:19:17;103452.60;;;-1.00
65290;BMP180;51893;59.754;10.110;2023-03-01T01:21:46;103453.40;;;-1.00
65290;BMP180;51893;59.754;10.110;2023-03-01T01:24:18;103461.20;;;-1.00
65290;BMP180;51893;59.754;10.110;2023-03-01T01:26:47;103463.40;;;-1.10
65290;BMP180;51893;59.754;10.110;2023-03-01T01:29:15;103459.20;;;-1.06
65290;BMP180;51893;59.754;10.110;2023-03-01T01:31:43;103462.60;;;-1.08
65290;BMP180;51893;59.754;10.110;2023-03-01T01:34:19;103456.60;;;-1.00
65290;BMP180;51893;59.754;10.110;2023-03-01T01:36:49;103459.40;;;-1.00
65290;BMP180;51893;59.754;10.110;2023-03-01T01:39:17;103451.00;;;-1.00
65290;BMP180;51893;59.754;10.110;2023-03-01T01:41:46;103453.60;;;-1.00
65290;BMP180;51893;59.754;10.110;2023-03-01T01:47:05;103465.20;;;-1.04
65290;BMP180;51893;59.754;10.110;2023-03-01T01:49:41;103466.60;;;-1.10
65290;BMP180;51893;59.754;10.110;2023-03-01T01:52:26;103468.20;;;-1.10
65290;BMP180;51893;59.754;10.110;2023-03-01T01:55:11;103465.40;;;-1.20
65290;BMP180;51893;59.754;10.110;2023-03-01T01:57:48;103459.80;;;-1.20
65290;BMP180;51893;59.754;10.110;2023-03-01T02:00:24;103460.40;;;-1.20
65290;BMP180;51893;59.754;10.110;2023-03-01T02:03:03;103453.00;;;-1.20
65290;BMP180;51893;59.754;10.110;2023-03-01T02:05:46;103460.20;;;-1.20
65290;BMP180;51893;59.754;10.110;2023-03-01T02:08:27;103458.20;;;-1.20
65290;BMP180;51893;59.754;10.110;2023-03-01T02:10:57;103455.40;;;-1.20
65290;BMP180;51893;59.754;10.110;2023-03-01T02:13:27;103447.80;;;-1.30
65290;BMP180;51893;59.754;10.110;2023-03-01T02:15:56;103448.60;;;-1.30
65290;BMP180;51893;59.754;10.110;2023-03-01T02:18:25;103455.00;;;-1.38
65290;BMP180;51893;59.754;10.110;2023-03-01T02:23:54;103444.00;;;-1.38
65290;BMP180;51893;59.754;10.110;2023-03-01T02:26:47;103434.20;;;-1.40
65290;BMP180;51893;59.754;10.110;2023-03-01T02:29:16;103446.60;;;-1.40
65290;BMP180;51893;59.754;10.110;2023-03-01T02:31:44;103443.00;;;-1.40
65290;BMP180;51893;59.754;10.110;2023-03-01T02:34:18;103434.60;;;-1.46
65290;BMP180;51893;59.754;10.110;2023-03-01T02:37:00;103440.00;;;-1.50
65290;BMP180;51893;59.754;10.110;2023-03-01T02:39:39;103444.40;;;-1.58
65290;BMP180;51893;59.754;10.110;2023-03-01T02:42:15;103443.60;;;-1.60
65290;BMP180;51893;59.754;10.110;2023-03-01T02:44:44;103437.60;;;-1.60
65290;BMP180;51893;59.754;10.110;2023-03-01T02:47:12;103442.00;;;-1.70
65290;BMP180;51893;59.754;10.110;2023-03-01T02:49:41;103437.80;;;-1.80
65290;BMP180;51893;59.754;10.110;2023-03-01T02:52:36;103435.80;;;-1.80
65290;BMP180;51893;59.754;10.110;2023-03-01T02:55:14;103441.60;;;-1.80
65290;BMP180;51893;59.754;10.110;2023-03-01T02:57:46;103439.60;;;-1.80
65290;BMP180;51893;59.754;10.110;2023-03-01T03:00:42;103434.80;;;-1.80
65290;BMP180;51893;59.754;10.110;2023-03-01T03:03:19;103443.60;;;-1.78
65290;BMP180;51893;59.754;10.110;2023-03-01T03:05:49;103438.60;;;-1.70
65290;BMP180;51893;59.754;10.110;2023-03-01T03:08:17;103446.40;;;-1.70
65290;BMP180;51893;59.754;10.110;2023-03-01T03:10:51;103435.20;;;-1.70
65290;BMP180;51893;59.754;10.110;2023-03-01T03:13:20;103431.40;;;-1.70
65290;BMP180;51893;59.754;10.110;2023-03-01T03:15:50;103425.00;;;-1.70
65290;BMP180;51893;59.754;10.110;2023-03-01T03:18:18;103427.80;;;-1.70
65290;BMP180;51893;59.754;10.110;2023-03-01T03:20:47;103428.80;;;-1.70
65290;BMP180;51893;59.754;10.110;2023-03-01T03:23:22;103414.20;;;-1.70
65290;BMP180;51893;59.754;10.110;2023-03-01T03:25:50;103418.80;;;-1.70
65290;BMP180;51893;59.754;10.110;2023-03-01T03:28:18;103416.40;;;-1.70
65290;BMP180;51893;59.754;10.110;2023-03-01T03:30:46;103420.20;;;-1.80
65290;BMP180;51893;59.754;10.110;2023-03-01T03:33:14;103419.00;;;-1.86
65290;BMP180;51893;59.754;10.110;2023-03-01T03:35:47;103414.00;;;-1.90
65290;BMP180;51893;59.754;10.110;2023-03-01T03:38:18;103416.20;;;-2.00
65290;BMP180;51893;59.754;10.110;2023-03-01T03:40:59;103413.80;;;-2.04
65290;BMP180;51893;59.754;10.110;2023-03-01T03:43:33;103417.00;;;-2.10
65290;BMP180;51893;59.754;10.110;2023-03-01T03:46:03;103415.40;;;-2.04
65290;BMP180;51893;59.754;10.110;2023-03-01T03:48:36;103406.40;;;-2.00
65290;BMP180;51893;59.754;10.110;2023-03-01T03:51:10;103413.20;;;-2.00
65290;BMP180;51893;59.754;10.110;2023-03-01T03:53:40;103404.40;;;-2.00
65290;BMP180;51893;59.754;10.110;2023-03-01T03:56:08;103408.20;;;-2.00
65290;BMP180;51893;59.754;10.110;2023-03-01T03:58:37;103408.60;;;-2.00
65290;BMP180;51893;59.754;10.110;2023-03-01T04:01:05;103403.80;;;-2.00
65290;BMP180;51893;59.754;10.110;2023-03-01T04:03:34;103407.20;;;-2.08
65290;BMP180;51893;59.754;10.110;2023-03-01T04:06:03;103403.80;;;-2.10
65290;BMP180;51893;59.754;10.110;2023-03-01T04:08:32;103400.00;;;-2.10
65290;BMP180;51893;59.754;10.110;2023-03-01T04:11:02;103409.40;;;-2.18
65290;BMP180;51893;59.754;10.110;2023-03-01T04:13:54;103401.40;;;-2.20
65290;BMP180;51893;59.754;10.110;2023-03-01T04:16:24;103396.20;;;-2.12
65290;BMP180;51893;59.754;10.110;2023-03-01T04:18:53;103391.80;;;-2.10
65290;BMP180;51893;59.754;10.110;2023-03-01T04:21:21;103387.00;;;-2.10
65290;BMP180;51893;59.754;10.110;2023-03-01T04:23:49;103385.80;;;-2.10
65290;BMP180;51893;59.754;10.110;2023-03-01T04:26:20;103390.80;;;-2.10
65290;BMP180;51893;59.754;10.110;2023-03-01T04:28:49;103389.40;;;-2.10
65290;BMP180;51893;59.754;10.110;2023-03-01T04:31:19;103391.00;;;-2.14
65290;BMP180;51893;59.754;10.110;2023-03-01T04:33:53;103382.60;;;-2.10
65290;BMP180;51893;59.754;10.110;2023-03-01T04:36:25;103383.60;;;-2.10
65290;BMP180;51893;59.754;10.110;2023-03-01T04:38:55;103374.60;;;-2.20
65290;BMP180;51893;59.754;10.110;2023-03-01T04:41:25;103376.80;;;-2.22
65290;BMP180;51893;59.754;10.110;2023-03-01T04:43:53;103374.20;;;-2.20
65290;BMP180;51893;59.754;10.110;2023-03-01T04:46:21;103381.00;;;-2.20
65290;BMP180;51893;59.754;10.110;2023-03-01T04:48:50;103382.40;;;-2.16
65290;BMP180;51893;59.754;10.110;2023-03-01T04:51:18;103382.00;;;-2.20
65290;BMP180;51893;59.754;10.110;2023-03-01T04:53:47;103378.60;;;-2.20
65290;BMP180;51893;59.754;10.110;2023-03-01T04:56:16;103388.20;;;-2.22
65290;BMP180;51893;59.754;10.110;2023-03-01T04:58:46;103389.80;;;-2.30
65290;BMP180;51893;59.754;10.110;2023-03-01T05:01:18;103392.60;;;-2.36
65290;BMP180;51893;59.754;10.110;2023-03-01T05:03:50;103401.40;;;-2.40
65290;BMP180;51893;59.754;10.110;2023-03-01T05:06:20;103401.80;;;-2.40
65290;BMP180;51893;59.754;10.110;2023-03-01T05:08:49;103397.20;;;-2.40
65290;BMP180;51893;59.754;10.110;2023-03-01T05:11:19;103397.00;;;-2.40
65290;BMP180;51893;59.754;10.110;2023-03-01T05:13:48;103397.80;;;-2.42
65290;BMP180;51893;59.754;10.110;2023-03-01T05:16:17;103396.60;;;-2.50
65290;BMP180;51893;59.754;10.110;2023-03-01T05:18:47;103400.40;;;-2.50
65290;BMP180;51893;59.754;10.110;2023-03-01T05:21:16;103403.00;;;-2.50
65290;BMP180;51893;59.754;10.110;2023-03-01T05:23:44;103408.40;;;-2.60
65290;BMP180;51893;59.754;10.110;2023-03-01T05:26:20;103404.40;;;-2.58
65290;BMP180;51893;59.754;10.110;2023-03-01T05:28:57;103409.00;;;-2.50
65290;BMP180;51893;59.754;10.110;2023-03-01T05:31:28;103403.40;;;-2.50
65290;BMP180;51893;59.754;10.110;2023-03-01T05:33:56;103397.80;;;-2.50
65290;BMP180;51893;59.754;10.110;2023-03-01T05:36:26;103398.20;;;-2.50
65290;BMP180;51893;59.754;10.110;2023-03-01T05:38:54;103397.20;;;-2.50
65290;BMP180;51893;59.754;10.110;2023-03-01T05:41:23;103389.20;;;-2.50
65290;BMP180;51893;59.754;10.110;2023-03-01T05:43:52;103392.00;;;-2.50
65290;BMP180;51893;59.754;10.110;2023-03-01T05:46:20;103394.80;;;-2.50
65290;BMP180;51893;59.754;10.110;2023-03-01T05:48:48;103393.80;;;-2.44
65290;BMP180;51893;59.754;10.110;2023-03-01T05:51:16;103395.20;;;-2.48
65290;BMP180;51893;59.754;10.110;2023-03-01T05:53:45;103409.80;;;-2.50
65290;BMP180;51893;59.754;10.110;2023-03-01T05:56:14;103402.40;;;-2.50
65290;BMP180;51893;59.754;10.110;2023-03-01T05:58:42;103396.60;;;-2.56
65290;BMP180;51893;59.754;10.110;2023-03-01T06:01:13;103394.60;;;-2.60
65290;BMP180;51893;59.754;10.110;2023-03-01T06:03:43;103395.00;;;-2.60
65290;BMP180;51893;59.754;10.110;2023-03-01T06:06:11;103398.20;;;-2.58
65290;BMP180;51893;59.754;10.110;2023-03-01T06:08:39;103396.20;;;-2.52
65290;BMP180;51893;59.754;10.110;2023-03-01T06:11:10;103400.00;;;-2.50
65290;BMP180;51893;59.754;10.110;2023-03-01T06:13:38;103398.00;;;-2.50
65290;BMP180;51893;59.754;10.110;2023-03-01T06:16:07;103392.40;;;-2.52
65290;BMP180;51893;59.754;10.110;2023-03-01T06:18:37;103390.00;;;-2.60
65290;BMP180;51893;59.754;10.110;2023-03-01T06:21:07;103388.80;;;-2.60
65290;BMP180;51893;59.754;10.110;2023-03-01T06:23:40;103383.00;;;-2.70
65290;BMP180;51893;59.754;10.110;2023-03-01T06:26:08;103383.80;;;-2.70
65290;BMP180;51893;59.754;10.110;2023-03-01T06:28:36;103388.00;;;-2.74
65290;BMP180;51893;59.754;10.110;2023-03-01T06:31:04;103385.20;;;-2.80
65290;BMP180;51893;59.754;10.110;2023-03-01T06:33:36;103380.80;;;-2.80
65290;BMP180;51893;59.754;10.110;2023-03-01T06:36:05;103385.20;;;-2.80
65290;BMP180;51893;59.754;10.110;2023-03-01T06:38:34;103390.20;;;-2.80
65290;BMP180;51893;59.754;10.110;2023-03-01T06:41:02;103383.40;;;-2.72
65290;BMP180;51893;59.754;10.110;2023-03-01T06:43:31;103377.00;;;-2.62
65290;BMP180;51893;59.754;10.110;2023-03-01T06:46:04;103381.20;;;-2.60
65290;BMP180;51893;59.754;10.110;2023-03-01T06:48:34;103385.20;;;-2.50
65290;BMP180;51893;59.754;10.110;2023-03-01T06:51:03;103394.60;;;-2.46
65290;BMP180;51893;59.754;10.110;2023-03-01T06:53:33;103393.20;;;-2.40
65290;BMP180;51893;59.754;10.110;2023-03-01T06:56:01;103404.00;;;-2.40
65290;BMP180;51893;59.754;10.110;2023-03-01T06:58:29;103411.20;;;-2.30
65290;BMP180;51893;59.754;10.110;2023-03-01T07:00:57;103413.80;;;-2.30
65290;BMP180;51893;59.754;10.110;2023-03-01T07:03:25;103413.00;;;-2.30
65290;BMP180;51893;59.754;10.110;2023-03-01T07:05:53;103406.20;;;-2.30
65290;BMP180;51893;59.754;10.110;2023-03-01T07:08:21;103397.40;;;-2.30
65290;BMP180;51893;59.754;10.110;2023-03-01T07:10:57;103400.00;;;-2.30
65290;BMP180;51893;59.754;10.110;2023-03-01T07:13:25;103397.00;;;-2.30
65290;BMP180;51893;59.754;10.110;2023-03-01T07:15:53;103403.00;;;-2.40
65290;BMP180;51893;59.754;10.110;2023-03-01T07:18:21;103410.60;;;-2.36
65290;BMP180;51893;59.754;10.110;2023-03-01T07:20:50;103414.40;;;-2.30
65290;BMP180;51893;59.754;10.110;2023-03-01T07:23:17;103419.60;;;-2.28
65290;BMP180;51893;59.754;10.110;2023-03-01T07:25:55;103421.00;;;-2.20
65290;BMP180;51893;59.754;10.110;2023-03-01T07:28:26;103414.00;;;-2.18
65290;BMP180;51893;59.754;10.110;2023-03-01T07:30:55;103417.80;;;-2.10
65290;BMP180;51893;59.754;10.110;2023-03-01T07:33:27;103419.40;;;-2.10
65290;BMP180;51893;59.754;10.110;2023-03-01T07:36:03;103422.20;;;-2.10
65290;BMP180;51893;59.754;10.110;2023-03-01T07:38:31;103421.00;;;-2.10
65290;BMP180;51893;59.754;10.110;2023-03-01T07:41:01;103418.40;;;-2.10
65290;BMP180;51893;59.754;10.110;2023-03-01T07:43:30;103417.60;;;-2.10
65290;BMP180;51893;59.754;10.110;2023-03-01T07:46:00;103416.20;;;-2.10
65290;BMP180;51893;59.754;10.110;2023-03-01T07:48:30;103410.60;;;-2.10
65290;BMP180;51893;59.754;10.110;2023-03-01T07:51:00;103414.00;;;-2.06
65290;BMP180;51893;59.754;10.110;2023-03-01T07:53:28;103413.00;;;-2.06
65290;BMP180;51893;59.754;10.110;2023-03-01T07:58:36;103410.80;;;-2.00
65290;BMP180;51893;59.754;10.110;2023-03-01T08:01:09;103407.20;;;-1.90
65290;BMP180;51893;59.754;10.110;2023-03-01T08:03:38;103402.40;;;-1.82
65290;BMP180;51893;59.754;10.110;2023-03-01T08:06:09;103401.60;;;-1.80
65290;BMP180;51893;59.754;10.110;2023-03-01T08:08:38;103396.00;;;-1.80
65290;BMP180;51893;59.754;10.110;2023-03-01T08:11:11;103398.80;;;-1.78
65290;BMP180;51893;59.754;10.110;2023-03-01T08:13:40;103403.00;;;-1.70
65290;BMP180;51893;59.754;10.110;2023-03-01T08:16:14;103403.80;;;-1.60
65290;BMP180;51893;59.754;10.110;2023-03-01T08:18:43;103410.60;;;-1.54
65290;BMP180;51893;59.754;10.110;2023-03-01T08:21:17;103405.00;;;-1.50
65290;BMP180;51893;59.754;10.110;2023-03-01T08:23:46;103403.00;;;-1.40
65290;BMP180;51893;59.754;10.110;2023-03-01T08:26:19;103400.80;;;-1.30
65290;BMP180;51893;59.754;10.110;2023-03-01T08:28:49;103398.20;;;-1.30
65290;BMP180;51893;59.754;10.110;2023-03-01T08:31:30;103395.60;;;-1.20
65290;BMP180;51893;59.754;10.110;2023-03-01T08:34:01;103397.20;;;-1.20
65290;BMP180;51893;59.754;10.110;2023-03-01T08:36:34;103395.80;;;-1.10
65290;BMP180;51893;59.754;10.110;2023-03-01T08:39:04;103403.60;;;-1.10
65290;BMP180;51893;59.754;10.110;2023-03-01T08:41:32;103395.40;;;-1.00
65290;BMP180;51893;59.754;10.110;2023-03-01T08:44:00;103391.80;;;-1.00
65290;BMP180;51893;59.754;10.110;2023-03-01T08:46:35;103394.60;;;-0.90
65290;BMP180;51893;59.754;10.110;2023-03-01T08:49:09;103400.20;;;-0.80
65290;BMP180;51893;59.754;10.110;2023-03-01T08:51:39;103393.80;;;-0.70
65290;BMP180;51893;59.754;10.110;2023-03-01T08:54:17;103389.80;;;-0.70
65290;BMP180;51893;59.754;10.110;2023-03-01T08:56:46;103395.20;;;-0.70
65290;BMP180;51893;59.754;10.110;2023-03-01T08:59:17;103395.80;;;-0.70
65290;BMP180;51893;59.754;10.110;2023-03-01T09:01:48;103395.80;;;-0.70
65290;BMP180;51893;59.754;10.110;2023-03-01T09:04:16;103390.80;;;-0.70
65290;BMP180;51893;59.754;10.110;2023-03-01T09:06:45;103393.00;;;-0.60
65290;BMP180;51893;59.754;10.110;2023-03-01T09:09:16;103379.00;;;-0.58
65290;BMP180;51893;59.754;10.110;2023-03-01T09:11:46;103375.40;;;-0.50
65290;BMP180;51893;59.754;10.110;2023-03-01T09:14:15;103382.60;;;-0.40
65290;BMP180;51893;59.754;10.110;2023-03-01T09:16:46;103381.20;;;-0.30
65290;BMP180;51893;59.754;10.110;2023-03-01T09:19:16;103388.00;;;-0.20
65290;BMP180;51893;59.754;10.110;2023-03-01T09:21:44;103394.40;;;-0.10
65290;BMP180;51893;59.754;10.110;2023-03-01T09:24:25;103395.20;;;0.00
65290;BMP180;51893;59.754;10.110;2023-03-01T09:26:55;103390.20;;;0.10
65290;BMP180;51893;59.754;10.110;2023-03-01T09:29:25;103392.00;;;0.16
65290;BMP180;51893;59.754;10.110;2023-03-01T09:31:53;103390.60;;;0.20
65290;BMP180;51893;59.754;10.110;2023-03-01T09:34:23;103387.40;;;0.26
65290;BMP180;51893;59.754;10.110;2023-03-01T09:36:51;103389.60;;;0.36
65290;BMP180;51893;59.754;10.110;2023-03-01T09:39:19;103388.60;;;0.40
65290;BMP180;51893;59.754;10.110;2023-03-01T09:42:00;103388.40;;;0.50
65290;BMP180;51893;59.754;10.110;2023-03-01T09:44:45;103386.20;;;0.50
65290;BMP180;51893;59.754;10.110;2023-03-01T09:47:26;103382.00;;;0.60
65290;BMP180;51893;59.754;10.110;2023-03-01T09:50:12;103380.80;;;0.70
65290;BMP180;51893;59.754;10.110;2023-03-01T09:52:49;103382.20;;;0.80
65290;BMP180;51893;59.754;10.110;2023-03-01T10:01:32;103381.80;;;1.00
65290;BMP180;51893;59.754;10.110;2023-03-01T10:04:35;103371.40;;;1.10
65290;BMP180;51893;59.754;10.110;2023-03-01T10:10:10;103386.60;;;1.30
65290;BMP180;51893;59.754;10.110;2023-03-01T10:12:45;103383.20;;;1.40
65290;BMP180;51893;59.754;10.110;2023-03-01T10:15:30;103394.80;;;1.50
65290;BMP180;51893;59.754;10.110;2023-03-01T10:18:14;103394.40;;;1.60
65290;BMP180;51893;59.754;10.110;2023-03-01T10:21:08;103396.40;;;1.70
65290;BMP180;51893;59.754;10.110;2023-03-01T10:23:41;103390.80;;;1.80
65290;BMP180;51893;59.754;10.110;2023-03-01T10:26:30;103392.60;;;1.80
65290;BMP180;51893;59.754;10.110;2023-03-01T10:29:06;103390.20;;;1.90
65290;BMP180;51893;59.754;10.110;2023-03-01T10:31:49;103397.20;;;1.90
65290;BMP180;51893;59.754;10.110;2023-03-01T10:34:26;103388.80;;;1.90
65290;BMP180;51893;59.754;10.110;2023-03-01T10:37:15;103387.20;;;2.00
65290;BMP180;51893;59.754;10.110;2023-03-01T10:40:08;103392.20;;;2.00
65290;BMP180;51893;59.754;10.110;2023-03-01T10:42:59;103391.20;;;2.10
65290;BMP180;51893;59.754;10.110;2023-03-01T10:45:33;103376.40;;;2.20
65290;BMP180;51893;59.754;10.110;2023-03-01T10:50:36;103362.80;;;2.40
65290;BMP180;51893;59.754;10.110;2023-03-01T10:53:23;103362.00;;;2.42
65290;BMP180;51893;59.754;10.110;2023-03-01T10:56:11;103368.60;;;2.56
65290;BMP180;51893;59.754;10.110;2023-03-01T10:59:03;103366.20;;;2.70
65290;BMP180;51893;59.754;10.110;2023-03-01T11:01:37;103366.60;;;2.84
65290;BMP180;51893;59.754;10.110;2023-03-01T11:06:34;103365.00;;;3.18
65290;BMP180;51893;59.754;10.110;2023-03-01T11:09:23;103361.20;;;3.30
65290;BMP180;51893;59.754;10.110;2023-03-01T11:11:57;103353.60;;;3.50
65290;BMP180;51893;59.754;10.110;2023-03-01T11:14:36;103344.40;;;3.70
65290;BMP180;51893;59.754;10.110;2023-03-01T11:17:30;103344.00;;;3.80
65290;BMP180;51893;59.754;10.110;2023-03-01T11:20:36;103347.60;;;4.00
65290;BMP180;51893;59.754;10.110;2023-03-01T11:23:14;103346.80;;;4.10
65290;BMP180;51893;59.754;10.110;2023-03-01T11:25:51;103347.60;;;4.10
65290;BMP180;51893;59.754;10.110;2023-03-01T11:28:22;103343.60;;;4.20
65290;BMP180;51893;59.754;10.110;2023-03-01T11:31:08;103344.40;;;4.30
65290;BMP180;51893;59.754;10.110;2023-03-01T11:36:46;103357.60;;;4.40
65290;BMP180;51893;59.754;10.110;2023-03-01T11:40:05;103348.60;;;4.50
65290;BMP180;51893;59.754;10.110;2023-03-01T11:49:36;103349.80;;;4.70
65290;BMP180;51893;59.754;10.110;2023-03-01T11:52:42;103344.00;;;4.80
65290;BMP180;51893;59.754;10.110;2023-03-01T12:07:36;103320.20;;;5.20
65290;BMP180;51893;59.754;10.110;2023-03-01T12:17:00;103327.60;;;5.50
65290;BMP180;51893;59.754;10.110;2023-03-01T12:26:02;103328.80;;;6.00
65290;BMP180;51893;59.754;10.110;2023-03-01T12:32:22;103314.20;;;6.40
65290;BMP180;51893;59.754;10.110;2023-03-01T12:37:54;103314.80;;;6.50
65290;BMP180;51893;59.754;10.110;2023-03-01T12:41:08;103308.40;;;6.60
65290;BMP180;51893;59.754;10.110;2023-03-01T12:43:56;103314.00;;;6.50
65290;BMP180;51893;59.754;10.110;2023-03-01T12:47:26;103320.20;;;6.46
65290;BMP180;51893;59.754;10.110;2023-03-01T12:50:22;103308.20;;;6.50
65290;BMP180;51893;59.754;10.110;2023-03-01T12:52:56;103302.20;;;6.52
65290;BMP180;51893;59.754;10.110;2023-03-01T12:55:37;103297.80;;;6.58
65290;BMP180;51893;59.754;10.110;2023-03-01T12:58:16;103295.00;;;6.64
65290;BMP180;51893;59.754;10.110;2023-03-01T13:15:31;103279.40;;;6.60
65290;BMP180;51893;59.754;10.110;2023-03-01T13:18:11;103269.80;;;6.70
65290;BMP180;51893;59.754;10.110;2023-03-01T13:21:00;103270.40;;;6.80
65290;BMP180;51893;59.754;10.110;2023-03-01T13:23:34;103270.80;;;6.70
65290;BMP180;51893;59.754;10.110;2023-03-01T13:26:11;103270.00;;;6.60
65290;BMP180;51893;59.754;10.110;2023-03-01T13:28:55;103263.80;;;6.44
65290;BMP180;51893;59.754;10.110;2023-03-01T13:34:01;103248.40;;;6.32
65290;BMP180;51893;59.754;10.110;2023-03-01T13:37:10;103237.40;;;6.30
65290;BMP180;51893;59.754;10.110;2023-03-01T13:39:40;103225.60;;;6.20
65290;BMP180;51893;59.754;10.110;2023-03-01T13:42:35;103230.60;;;6.20
65290;BMP180;51893;59.754;10.110;2023-03-01T13:45:24;103220.00;;;6.10
65290;BMP180;51893;59.754;10.110;2023-03-01T13:48:27;103219.00;;;6.00
65290;BMP180;51893;59.754;10.110;2023-03-01T13:51:05;103204.60;;;5.90
65290;BMP180;51893;59.754;10.110;2023-03-01T13:53:46;103205.00;;;5.90
65290;BMP180;51893;59.754;10.110;2023-03-01T13:56:24;103197.60;;;5.90
65290;BMP180;51893;59.754;10.110;2023-03-01T13:59:04;103190.80;;;5.82
65290;BMP180;51893;59.754;10.110;2023-03-01T14:01:35;103189.60;;;5.88
65290;BMP180;51893;59.754;10.110;2023-03-01T14:04:26;103184.60;;;5.90
65290;BMP180;51893;59.754;10.110;2023-03-01T14:07:18;103169.00;;;5.90
65290;BMP180;51893;59.754;10.110;2023-03-01T14:09:52;103172.80;;;5.90
65290;BMP180;51893;59.754;10.110;2023-03-01T14:12:55;103169.60;;;5.90
65290;BMP180;51893;59.754;10.110;2023-03-01T14:19:25;103184.80;;;5.88
65290;BMP180;51893;59.754;10.110;2023-03-01T14:22:20;103181.40;;;5.80
65290;BMP180;51893;59.754;10.110;2023-03-01T14:24:59;103170.20;;;5.80
65290;BMP180;51893;59.754;10.110;2023-03-01T14:27:39;103173.60;;;5.80
65290;BMP180;51893;59.754;10.110;2023-03-01T14:30:20;103175.80;;;5.82
65290;BMP180;51893;59.754;10.110;2023-03-01T14:32:56;103168.60;;;5.90
65290;BMP180;51893;59.754;10.110;2023-03-01T14:35:30;103175.00;;;5.90
65290;BMP180;51893;59.754;10.110;2023-03-01T14:37:58;103169.60;;;5.90
65290;BMP180;51893;59.754;10.110;2023-03-01T14:40:30;103166.80;;;5.86
65290;BMP180;51893;59.754;10.110;2023-03-01T14:43:02;103164.80;;;5.80
65290;BMP180;51893;59.754;10.110;2023-03-01T14:45:36;103160.80;;;5.84
65290;BMP180;51893;59.754;10.110;2023-03-01T14:48:06;103156.80;;;5.90
65290;BMP180;51893;59.754;10.110;2023-03-01T14:50:41;103148.00;;;5.90
65290;BMP180;51893;59.754;10.110;2023-03-01T14:53:29;103139.80;;;5.90
65290;BMP180;51893;59.754;10.110;2023-03-01T14:56:18;103145.00;;;5.90
65290;BMP180;51893;59.754;10.110;2023-03-01T14:58:57;103143.60;;;5.90
65290;BMP180;51893;59.754;10.110;2023-03-01T15:01:27;103141.60;;;5.94
65290;BMP180;51893;59.754;10.110;2023-03-01T15:03:58;103145.60;;;5.94
65290;BMP180;51893;59.754;10.110;2023-03-01T15:06:29;103155.80;;;5.90
65290;BMP180;51893;59.754;10.110;2023-03-01T15:08:58;103156.40;;;5.80
65290;BMP180;51893;59.754;10.110;2023-03-01T15:11:32;103153.20;;;5.70
65290;BMP180;51893;59.754;10.110;2023-03-01T15:14:01;103156.80;;;5.60
65290;BMP180;51893;59.754;10.110;2023-03-01T15:16:33;103154.80;;;5.50
65290;BMP180;51893;59.754;10.110;2023-03-01T15:19:07;103150.40;;;5.40
65290;BMP180;51893;59.754;10.110;2023-03-01T15:21:40;103144.80;;;5.40
65290;BMP180;51893;59.754;10.110;2023-03-01T15:26:53;103146.40;;;5.40
65290;BMP180;51893;59.754;10.110;2023-03-01T15:29:27;103141.80;;;5.50
65290;BMP180;51893;59.754;10.110;2023-03-01T15:32:20;103148.40;;;5.50
65290;BMP180;51893;59.754;10.110;2023-03-01T15:34:50;103144.80;;;5.56
65290;BMP180;51893;59.754;10.110;2023-03-01T15:37:38;103148.40;;;5.60
65290;BMP180;51893;59.754;10.110;2023-03-01T15:40:28;103146.40;;;5.60
65290;BMP180;51893;59.754;10.110;2023-03-01T15:43:04;103136.00;;;5.40
65290;BMP180;51893;59.754;10.110;2023-03-01T15:45:33;103133.60;;;5.26
65290;BMP180;51893;59.754;10.110;2023-03-01T15:48:25;103131.20;;;5.14
65290;BMP180;51893;59.754;10.110;2023-03-01T15:50:59;103133.60;;;5.10
65290;BMP180;51893;59.754;10.110;2023-03-01T15:53:29;103133.20;;;5.00
65290;BMP180;51893;59.754;10.110;2023-03-01T15:55:57;103133.40;;;5.00
65290;BMP180;51893;59.754;10.110;2023-03-01T15:58:25;103137.00;;;4.90